createdAt,value
2022-07-30T00:01:45.788Z,7.85
2022-07-30T00:04:12.556Z,8.00
2022-07-30T00:06:39.901Z,9.60
2022-07-30T00:09:06.807Z,7.47
2022-07-30T00:11:33.499Z,11.98
2022-07-30T00:14:00.751Z,10.43
2022-07-30T00:16:28.101Z,10.68
2022-07-30T00:18:54.834Z,9.13
2022-07-30T00:21:36.015Z,9.40
2022-07-30T00:24:04.484Z,8.60
2022-07-30T00:26:31.463Z,7.40
2022-07-30T00:28:58.540Z,7.35
2022-07-30T00:31:25.245Z,6.05
2022-07-30T00:33:52.141Z,9.30
2022-07-30T00:36:19.028Z,8.93
2022-07-30T00:38:45.770Z,7.68
2022-07-30T00:41:15.622Z,7.80
2022-07-30T00:43:43.907Z,12.10
2022-07-30T00:46:10.773Z,11.60
2022-07-30T00:48:37.636Z,6.22
2022-07-30T00:51:04.500Z,10.65
2022-07-30T00:53:31.300Z,10.07
2022-07-30T00:55:58.117Z,7.00
2022-07-30T00:58:25.937Z,7.95
2022-07-30T01:00:53.077Z,6.32
2022-07-30T01:03:20.022Z,9.70
2022-07-30T01:05:46.829Z,7.88
2022-07-30T01:08:14.123Z,5.40
2022-07-30T01:10:40.867Z,6.45
2022-07-30T01:13:08.357Z,6.47
2022-07-30T01:15:35.616Z,8.68
2022-07-30T01:18:07.023Z,6.50
2022-07-30T01:20:40.013Z,7.68
2022-07-30T01:23:33.076Z,7.22
2022-07-30T01:26:07.619Z,8.75
2022-07-30T01:28:38.636Z,7.15
2022-07-30T01:31:08.431Z,11.57
2022-07-30T01:33:40.366Z,8.20
2022-07-30T01:36:10.472Z,9.27
2022-07-30T01:38:41.297Z,6.63
2022-07-30T01:41:08.715Z,7.93
2022-07-30T01:43:36.543Z,8.43
2022-07-30T01:46:04.875Z,7.78
2022-07-30T01:48:36.873Z,8.73
2022-07-30T01:51:05.940Z,6.80
2022-07-30T01:53:38.495Z,9.82
2022-07-30T01:56:10.827Z,11.70
2022-07-30T01:58:41.198Z,6.97
2022-07-30T02:01:19.984Z,7.25
2022-07-30T02:03:47.367Z,9.70
2022-07-30T02:06:19.692Z,12.77
2022-07-30T02:08:53.211Z,13.85
2022-07-30T02:11:39.217Z,11.38
2022-07-30T02:14:18.053Z,13.10
2022-07-30T02:16:47.647Z,9.15
2022-07-30T02:19:17.023Z,10.60
2022-07-30T02:21:56.760Z,8.90
2022-07-30T02:24:28.289Z,11.85
2022-07-30T02:27:01.956Z,9.50
2022-07-30T02:29:33.302Z,10.07
2022-07-30T02:32:02.462Z,11.13
2022-07-30T02:34:33.491Z,8.40
2022-07-30T02:37:02.875Z,11.73
2022-07-30T02:39:31.513Z,10.60
2022-07-30T02:41:58.972Z,10.10
2022-07-30T02:44:29.177Z,8.25
2022-07-30T02:46:57.494Z,10.18
2022-07-30T02:49:48.234Z,13.07
2022-07-30T02:52:16.513Z,7.38
2022-07-30T02:54:45.297Z,9.77
2022-07-30T02:57:13.852Z,11.55
2022-07-30T02:59:42.044Z,10.43
2022-07-30T03:02:11.776Z,10.50
2022-07-30T03:04:42.437Z,14.10
2022-07-30T03:07:11.054Z,8.45
2022-07-30T03:09:52.507Z,13.13
2022-07-30T03:12:21.054Z,11.03
2022-07-30T03:14:47.964Z,6.97
2022-07-30T03:17:17.163Z,9.55
2022-07-30T03:19:45.673Z,9.18
2022-07-30T03:22:14.672Z,10.00
2022-07-30T03:24:44.268Z,16.50
2022-07-30T03:27:13.716Z,14.25
2022-07-30T03:29:41.502Z,10.77
2022-07-30T03:32:09.107Z,12.77
2022-07-30T03:34:42.402Z,12.57
2022-07-30T03:37:11.097Z,13.65
2022-07-30T03:39:39.455Z,11.73
2022-07-30T03:42:08.909Z,14.88
2022-07-30T03:44:37.122Z,17.27
2022-07-30T03:47:06.415Z,12.70
2022-07-30T03:49:39.375Z,15.55
2022-07-30T03:52:10.103Z,13.00
2022-07-30T03:54:37.214Z,15.55
2022-07-30T03:57:25.588Z,14.07
2022-07-30T03:59:52.633Z,21.80
2022-07-30T04:02:21.222Z,28.83
2022-07-30T04:05:06.824Z,25.58
2022-07-30T04:07:33.779Z,17.85
2022-07-30T04:10:09.855Z,23.05
2022-07-30T04:12:56.567Z,29.80
2022-07-30T04:16:37.043Z,27.67
2022-07-30T04:18:13.437Z,22.42
2022-07-30T04:20:43.328Z,28.25
2022-07-30T04:23:10.862Z,36.65
2022-07-30T04:25:40.653Z,28.88
2022-07-30T04:28:09.377Z,30.13
2022-07-30T04:30:37.116Z,30.27
2022-07-30T04:33:04.786Z,27.63
2022-07-30T04:35:56.850Z,27.00
2022-07-30T04:38:29.993Z,24.83
2022-07-30T04:40:56.784Z,25.95
2022-07-30T04:43:24.203Z,23.52
2022-07-30T04:45:50.928Z,26.10
2022-07-30T04:48:17.747Z,20.23
2022-07-30T04:50:48.919Z,20.90
2022-07-30T04:53:19.720Z,24.80
2022-07-30T04:55:57.197Z,24.80
2022-07-30T04:58:28.459Z,21.15
2022-07-30T05:00:58.091Z,22.23
2022-07-30T05:03:30.031Z,20.13
2022-07-30T05:05:58.226Z,24.15
2022-07-30T05:08:29.846Z,17.48
2022-07-30T05:10:59.737Z,26.48
2022-07-30T05:13:34.052Z,18.92
2022-07-30T05:16:03.630Z,23.67
2022-07-30T05:18:30.436Z,24.73
2022-07-30T05:20:57.176Z,19.50
2022-07-30T05:23:34.751Z,18.73
2022-07-30T05:26:11.789Z,17.30
2022-07-30T05:28:55.130Z,24.77
2022-07-30T05:31:29.394Z,19.10
2022-07-30T05:34:03.250Z,18.98
2022-07-30T05:36:38.275Z,19.10
2022-07-30T05:39:05.610Z,18.85
2022-07-30T05:41:44.118Z,20.13
2022-07-30T05:44:22.175Z,21.15
2022-07-30T05:46:50.819Z,21.38
2022-07-30T05:49:18.099Z,16.40
2022-07-30T05:51:45.114Z,19.25
2022-07-30T05:54:12.220Z,18.25
2022-07-30T05:57:03.645Z,20.40
2022-07-30T05:59:37.023Z,21.17
2022-07-30T06:02:06.747Z,18.35
2022-07-30T06:04:50.868Z,21.02
2022-07-30T06:07:17.694Z,22.92
2022-07-30T06:09:44.587Z,25.88
2022-07-30T06:12:11.589Z,25.35
2022-07-30T06:14:40.647Z,21.40
2022-07-30T06:17:10.323Z,22.38
2022-07-30T06:20:06.571Z,21.42
2022-07-30T06:22:44.666Z,17.63
2022-07-30T06:25:20.773Z,18.40
2022-07-30T06:27:48.264Z,19.17
2022-07-30T06:30:15.010Z,15.80
2022-07-30T06:32:45.559Z,17.20
2022-07-30T06:35:16.061Z,20.60
2022-07-30T06:38:05.590Z,19.00
2022-07-30T06:40:30.983Z,19.90
2022-07-30T06:43:04.230Z,18.52
2022-07-30T06:45:42.446Z,16.88
2022-07-30T06:48:29.942Z,20.15
2022-07-30T06:50:58.577Z,16.02
2022-07-30T06:53:26.342Z,18.80
2022-07-30T06:56:12.695Z,16.80
2022-07-30T06:58:53.017Z,22.83
2022-07-30T07:01:38.576Z,14.80
2022-07-30T07:04:05.422Z,14.23
2022-07-30T07:06:33.033Z,11.85
2022-07-30T07:09:00.635Z,11.10
2022-07-30T07:11:41.103Z,11.90
2022-07-30T07:14:11.586Z,9.15
2022-07-30T07:16:38.514Z,9.75
2022-07-30T07:20:01.770Z,9.07
2022-07-30T07:22:12.241Z,12.90
2022-07-30T07:24:39.932Z,13.13
2022-07-30T07:27:15.643Z,13.60
2022-07-30T07:30:01.167Z,8.15
2022-07-30T07:32:32.261Z,9.85
2022-07-30T07:34:59.044Z,11.70
2022-07-30T07:37:26.969Z,8.63
2022-07-30T07:39:53.760Z,9.63
2022-07-30T07:42:20.630Z,6.53
2022-07-30T07:44:48.613Z,10.98
2022-07-30T07:47:15.919Z,9.40
2022-07-30T07:49:49.341Z,12.23
2022-07-30T07:52:16.110Z,10.93
2022-07-30T07:54:43.292Z,14.10
2022-07-30T07:57:12.855Z,9.77
2022-07-30T08:02:14.958Z,10.07
2022-07-30T08:05:05.774Z,10.50
2022-07-30T08:07:51.958Z,7.75
2022-07-30T08:10:37.245Z,13.80
2022-07-30T08:13:05.175Z,5.68
2022-07-30T08:16:03.957Z,15.52
2022-07-30T08:18:49.585Z,7.43
2022-07-30T08:21:27.188Z,8.95
2022-07-30T08:23:53.913Z,6.88
2022-07-30T08:26:20.677Z,5.95
2022-07-30T08:28:47.409Z,5.50
2022-07-30T08:31:14.231Z,11.00
2022-07-30T08:33:40.948Z,7.00
2022-07-30T08:36:09.444Z,7.82
2022-07-30T08:38:38.195Z,5.88
2022-07-30T08:41:05.430Z,6.70
2022-07-30T08:43:33.133Z,5.43
2022-07-30T08:46:01.297Z,10.52
2022-07-30T08:48:40.858Z,10.85
2022-07-30T08:51:08.195Z,8.73
2022-07-30T08:53:56.287Z,6.55
2022-07-30T08:56:23.350Z,5.20
2022-07-30T08:58:51.268Z,6.05
2022-07-30T09:01:18.015Z,5.75
2022-07-30T09:03:44.721Z,10.65
2022-07-30T09:06:11.977Z,7.03
2022-07-30T09:08:39.045Z,4.70
2022-07-30T09:11:05.740Z,7.97
2022-07-30T09:13:38.671Z,7.15
2022-07-30T09:16:08.176Z,6.75
2022-07-30T09:18:39.433Z,11.23
2022-07-30T09:21:27.201Z,6.03
2022-07-30T09:24:13.880Z,8.45
2022-07-30T09:27:01.769Z,7.80
2022-07-30T09:29:58.212Z,10.13
2022-07-30T09:32:56.237Z,10.68
2022-07-30T09:35:56.331Z,11.85
2022-07-30T09:38:51.571Z,7.15
2022-07-30T09:41:39.810Z,8.95
2022-07-30T09:44:22.797Z,7.68
2022-07-30T09:46:51.847Z,7.93
2022-07-30T09:49:27.624Z,7.45
2022-07-30T09:51:57.381Z,7.30
2022-07-30T09:54:50.946Z,5.05
2022-07-30T09:57:25.690Z,8.48
2022-07-30T09:59:59.840Z,4.75
2022-07-30T10:02:33.469Z,8.02
2022-07-30T10:05:20.540Z,7.00
2022-07-30T10:07:56.236Z,4.70
2022-07-30T10:10:29.837Z,4.18
2022-07-30T10:13:01.187Z,6.57
2022-07-30T10:15:33.348Z,9.05
2022-07-30T10:18:06.191Z,7.80
2022-07-30T10:21:05.718Z,5.32
2022-07-30T10:23:52.815Z,6.82
2022-07-30T10:26:43.059Z,6.07
2022-07-30T10:29:33.594Z,4.32
2022-07-30T10:32:01.155Z,5.72
2022-07-30T10:34:32.562Z,5.68
2022-07-30T10:37:06.821Z,3.97
2022-07-30T10:39:43.498Z,3.13
2022-07-30T10:42:22.960Z,5.07
2022-07-30T10:45:18.061Z,4.85
2022-07-30T10:47:49.428Z,12.10
2022-07-30T10:50:25.564Z,7.05
2022-07-30T10:52:52.494Z,5.90
2022-07-30T10:55:36.454Z,6.28
2022-07-30T10:58:06.548Z,2.55
2022-07-30T11:03:23.377Z,6.10
2022-07-30T11:05:52.276Z,3.67
2022-07-30T11:08:31.909Z,3.33
2022-07-30T11:10:59.551Z,2.58
2022-07-30T11:14:04.248Z,4.43
2022-07-30T11:16:33.740Z,6.80
2022-07-30T11:19:56.988Z,3.78
2022-07-30T11:22:25.931Z,5.30
2022-07-30T11:24:53.274Z,5.53
2022-07-30T11:27:49.018Z,4.00
2022-07-30T11:30:16.965Z,3.92
2022-07-30T11:32:48.471Z,4.07
2022-07-30T11:35:34.897Z,7.18
2022-07-30T11:38:18.690Z,5.55
2022-07-30T11:40:45.804Z,3.25
2022-07-30T11:43:35.975Z,5.22
2022-07-30T11:46:10.209Z,3.17
2022-07-30T11:48:39.317Z,4.00
2022-07-30T11:51:06.541Z,3.17
2022-07-30T11:53:35.007Z,3.55
2022-07-30T11:56:03.332Z,6.43
2022-07-30T11:58:34.598Z,4.30
2022-07-30T12:01:11.754Z,4.00
2022-07-30T12:03:44.118Z,3.30
2022-07-30T12:06:17.973Z,5.05
2022-07-30T12:08:47.103Z,4.55
2022-07-30T12:11:13.841Z,2.92
2022-07-30T12:13:46.006Z,4.15
2022-07-30T12:16:16.813Z,3.97
2022-07-30T12:18:44.368Z,2.72
2022-07-30T12:21:17.603Z,4.20
2022-07-30T12:24:09.912Z,3.50
2022-07-30T12:26:36.745Z,4.70
2022-07-30T12:29:06.480Z,4.70
2022-07-30T12:31:33.797Z,6.50
2022-07-30T12:34:00.872Z,6.45
2022-07-30T12:36:33.376Z,4.25
2022-07-30T12:39:01.807Z,4.35
2022-07-30T12:41:42.511Z,2.05
2022-07-30T12:44:09.953Z,7.22
2022-07-30T12:46:41.224Z,6.88
2022-07-30T12:51:52.069Z,7.30
2022-07-30T12:54:20.335Z,4.38
2022-07-30T12:57:01.727Z,6.47
2022-07-30T12:59:30.385Z,6.03
2022-07-30T13:02:00.304Z,4.53
2022-07-30T13:04:27.621Z,5.03
2022-07-30T13:07:11.053Z,4.32
2022-07-30T13:09:39.861Z,2.63
2022-07-30T13:12:07.186Z,3.22
2022-07-30T13:14:34.453Z,6.72
2022-07-30T13:17:03.603Z,5.43
2022-07-30T13:19:31.103Z,5.05
2022-07-30T13:21:57.772Z,6.72
2022-07-30T13:24:24.462Z,3.70
2022-07-30T13:26:51.209Z,2.67
2022-07-30T13:29:18.218Z,3.67
2022-07-30T13:31:44.936Z,5.75
2022-07-30T13:34:12.075Z,4.75
2022-07-30T13:36:39.167Z,2.60
2022-07-30T13:39:05.860Z,3.47
2022-07-30T13:41:33.512Z,3.72
2022-07-30T13:44:00.240Z,3.45
2022-07-30T13:46:27.081Z,5.15
2022-07-30T13:48:54.100Z,4.15
2022-07-30T13:51:20.891Z,3.35
2022-07-30T13:53:47.628Z,7.03
2022-07-30T13:56:14.434Z,3.58
2022-07-30T13:58:42.674Z,3.63
2022-07-30T14:01:17.665Z,3.90
2022-07-30T14:03:50.167Z,3.58
2022-07-30T14:06:18.603Z,5.13
2022-07-30T14:08:45.352Z,6.25
2022-07-30T14:11:12.079Z,4.20
2022-07-30T14:13:39.382Z,2.78
2022-07-30T14:16:22.647Z,3.80
2022-07-30T14:18:53.170Z,3.28
2022-07-30T14:21:19.912Z,4.28
2022-07-30T14:23:49.385Z,2.67
2022-07-30T14:26:16.067Z,2.97
2022-07-30T14:28:42.794Z,2.03
2022-07-30T14:31:09.481Z,3.90
2022-07-30T14:33:36.378Z,4.43
2022-07-30T14:36:03.466Z,5.47
2022-07-30T14:38:30.788Z,3.22
2022-07-30T14:40:57.466Z,3.10
2022-07-30T14:43:25.020Z,5.90
2022-07-30T14:45:53.320Z,3.63
2022-07-30T14:48:19.991Z,3.38
2022-07-30T14:51:12.955Z,7.25
2022-07-30T14:53:33.752Z,7.95
2022-07-30T14:56:00.517Z,4.07
2022-07-30T14:58:27.383Z,2.90
2022-07-30T15:00:54.283Z,2.90
2022-07-30T15:03:22.870Z,5.18
2022-07-30T15:05:52.630Z,3.22
2022-07-30T15:08:19.741Z,3.58
2022-07-30T15:10:46.439Z,6.25
2022-07-30T15:13:13.148Z,3.92
2022-07-30T15:15:41.290Z,3.20
2022-07-30T15:18:10.723Z,5.15
2022-07-30T15:20:37.568Z,4.70
2022-07-30T15:23:04.449Z,2.90
2022-07-30T15:25:32.378Z,7.53
2022-07-30T15:27:59.207Z,6.00
2022-07-30T15:30:26.016Z,3.13
2022-07-30T15:32:54.273Z,2.88
2022-07-30T15:35:21.258Z,5.15
2022-07-30T15:37:48.036Z,5.18
2022-07-30T15:40:14.814Z,4.28
2022-07-30T15:42:42.599Z,3.67
2022-07-30T15:45:18.330Z,6.30
2022-07-30T15:47:45.656Z,3.08
2022-07-30T15:50:13.282Z,3.08
2022-07-30T15:52:40.037Z,3.38
2022-07-30T15:55:07.309Z,5.25
2022-07-30T15:57:34.032Z,3.83
2022-07-30T16:00:02.284Z,2.38
2022-07-30T16:02:39.637Z,7.47
2022-07-30T16:05:13.668Z,8.68
2022-07-30T16:07:41.362Z,3.15
2022-07-30T16:10:09.390Z,4.10
2022-07-30T16:12:36.065Z,3.13
2022-07-30T16:15:02.798Z,3.53
2022-07-30T16:17:29.535Z,6.63
2022-07-30T16:19:56.265Z,3.33
2022-07-30T16:22:24.145Z,8.35
2022-07-30T16:24:51.476Z,5.07
2022-07-30T16:27:18.849Z,3.85
2022-07-30T16:29:45.681Z,5.50
2022-07-30T16:32:12.482Z,6.80
2022-07-30T16:34:39.242Z,5.47
2022-07-30T16:37:05.940Z,4.80
2022-07-30T16:39:32.612Z,5.35
2022-07-30T16:41:59.449Z,8.75
2022-07-30T16:44:31.951Z,8.07
2022-07-30T16:46:58.688Z,5.18
2022-07-30T16:49:25.653Z,4.32
2022-07-30T16:51:52.547Z,10.85
2022-07-30T16:54:19.441Z,9.82
2022-07-30T16:56:46.179Z,11.18
2022-07-30T16:59:14.447Z,5.40
2022-07-30T17:01:41.184Z,7.35
2022-07-30T17:04:07.871Z,5.25
2022-07-30T17:06:35.609Z,4.80
2022-07-30T17:09:02.417Z,5.05
2022-07-30T17:11:46.766Z,6.13
2022-07-30T17:14:14.983Z,6.55
2022-07-30T17:16:42.086Z,4.53
2022-07-30T17:19:09.245Z,2.92
2022-07-30T17:21:37.890Z,3.20
2022-07-30T17:24:10.886Z,1.52
2022-07-30T17:26:42.958Z,3.00
2022-07-30T17:29:14.274Z,5.75
2022-07-30T17:31:44.130Z,3.45
2022-07-30T17:34:13.759Z,2.83
2022-07-30T17:36:51.504Z,5.28
2022-07-30T17:40:23.930Z,2.63
2022-07-30T17:42:10.801Z,2.35
2022-07-30T17:44:39.202Z,4.97
2022-07-30T17:47:08.007Z,4.32
2022-07-30T17:49:39.189Z,2.10
2022-07-30T17:52:06.148Z,3.20
2022-07-30T17:54:32.810Z,3.22
2022-07-30T17:56:59.545Z,2.10
2022-07-30T17:59:26.356Z,2.00
2022-07-30T18:01:53.063Z,3.47
2022-07-30T18:04:19.720Z,2.97
2022-07-30T18:06:46.440Z,2.65
2022-07-30T18:09:14.328Z,2.17
2022-07-30T18:11:41.307Z,3.97
2022-07-30T18:14:07.975Z,2.03
2022-07-30T18:16:34.722Z,1.20
2022-07-30T18:19:01.431Z,1.95
2022-07-30T18:21:28.164Z,2.78
2022-07-30T18:23:55.302Z,4.28
2022-07-30T18:26:22.510Z,2.55
2022-07-30T18:28:50.745Z,3.00
2022-07-30T18:31:18.148Z,2.80
2022-07-30T18:33:45.153Z,3.83
2022-07-30T18:36:12.070Z,2.53
2022-07-30T18:38:39.003Z,3.72
2022-07-30T18:41:05.795Z,2.05
2022-07-30T18:43:47.935Z,3.13
2022-07-30T18:46:15.788Z,3.63
2022-07-30T18:48:42.517Z,3.70
2022-07-30T18:51:13.714Z,4.13
2022-07-30T18:56:08.623Z,3.55
2022-07-30T18:58:37.233Z,12.15
2022-07-30T19:01:04.496Z,2.63
2022-07-30T19:03:31.292Z,1.75
2022-07-30T19:05:58.032Z,4.68
2022-07-30T19:08:24.724Z,2.80
2022-07-30T19:10:51.690Z,4.60
2022-07-30T19:13:18.581Z,4.43
2022-07-30T19:15:45.351Z,3.10
2022-07-30T19:18:12.064Z,8.73
2022-07-30T19:20:38.788Z,1.90
2022-07-30T19:23:07.581Z,2.45
2022-07-30T19:25:35.905Z,2.35
2022-07-30T19:28:04.586Z,2.15
2022-07-30T19:30:33.370Z,3.80
2022-07-30T19:33:13.966Z,4.07
2022-07-30T19:35:41.914Z,5.00
2022-07-30T19:38:08.805Z,2.08
2022-07-30T19:40:36.739Z,6.88
2022-07-30T19:43:09.294Z,2.13
2022-07-30T19:45:46.643Z,2.17
2022-07-30T19:48:15.208Z,2.25
2022-07-30T19:50:57.018Z,4.13
2022-07-30T19:53:23.941Z,2.92
2022-07-30T19:55:50.892Z,1.95
2022-07-30T19:58:17.853Z,3.25
2022-07-30T20:00:49.576Z,2.35
2022-07-30T20:03:25.551Z,3.22
2022-07-30T20:05:57.568Z,4.60
2022-07-30T20:08:29.566Z,4.07
2022-07-30T20:10:57.838Z,4.55
2022-07-30T20:13:44.826Z,2.42
2022-07-30T20:16:13.156Z,4.95
2022-07-30T20:18:40.710Z,3.83
2022-07-30T20:21:11.314Z,8.70
2022-07-30T20:23:41.303Z,3.97
2022-07-30T20:28:57.628Z,5.43
2022-07-30T20:31:25.980Z,2.50
2022-07-30T20:33:52.846Z,3.15
2022-07-30T20:36:19.632Z,7.93
2022-07-30T20:38:47.137Z,3.28
2022-07-30T20:41:14.759Z,3.65
2022-07-30T20:43:46.058Z,3.78
2022-07-30T20:46:20.143Z,3.95
2022-07-30T20:48:47.032Z,4.50
2022-07-30T20:51:14.005Z,6.88
2022-07-30T20:53:45.383Z,3.08
2022-07-30T20:56:13.602Z,4.95
2022-07-30T20:58:45.996Z,1.90
2022-07-30T21:01:25.133Z,3.10
2022-07-30T21:04:25.368Z,4.95
2022-07-30T21:06:58.640Z,4.30
2022-07-30T21:09:25.578Z,4.70
2022-07-30T21:11:56.727Z,3.30
2022-07-30T21:14:23.588Z,6.78
2022-07-30T21:16:56.015Z,3.97
2022-07-30T21:19:26.037Z,4.18
2022-07-30T21:22:02.784Z,3.80
2022-07-30T21:24:30.020Z,3.20
2022-07-30T21:27:01.415Z,3.03
2022-07-30T21:32:04.899Z,5.57
2022-07-30T21:34:40.277Z,5.93
2022-07-30T21:37:10.613Z,4.07
2022-07-30T21:39:42.124Z,4.32
2022-07-30T21:42:09.174Z,5.68
2022-07-30T21:44:37.593Z,4.43
2022-07-30T21:47:05.465Z,6.07
2022-07-30T21:49:37.229Z,3.13
2022-07-30T21:52:04.330Z,4.85
2022-07-30T21:54:35.007Z,4.78
2022-07-30T21:57:12.504Z,5.63
2022-07-30T21:59:40.522Z,5.03
2022-07-30T22:02:15.886Z,3.00
2022-07-30T22:04:47.476Z,4.93
2022-07-30T22:07:14.944Z,6.25
2022-07-30T22:09:41.634Z,7.43
2022-07-30T22:12:10.308Z,6.70
2022-07-30T22:14:39.842Z,3.47
2022-07-30T22:17:14.728Z,5.82
2022-07-30T22:19:51.676Z,4.05
2022-07-30T22:22:26.169Z,5.03
2022-07-30T22:24:55.847Z,4.25
2022-07-30T22:27:25.148Z,7.00
2022-07-30T22:29:55.802Z,6.72
2022-07-30T22:32:23.487Z,5.30
2022-07-30T22:34:51.121Z,9.23
2022-07-30T22:37:26.732Z,5.30
2022-07-30T22:40:00.867Z,7.53
2022-07-30T22:42:28.421Z,5.72
2022-07-30T22:44:55.567Z,4.93
2022-07-30T22:47:51.439Z,5.25
2022-07-30T22:50:09.978Z,10.00
2022-07-30T22:52:39.393Z,8.98
2022-07-30T22:55:09.333Z,7.75
2022-07-30T22:57:38.000Z,9.77
2022-07-30T23:00:12.303Z,7.30
2022-07-30T23:02:42.105Z,5.53
2022-07-30T23:05:10.785Z,9.48
2022-07-30T23:07:40.024Z,7.63
2022-07-30T23:10:17.408Z,9.45
2022-07-30T23:12:17.924Z,8.82
2022-07-30T23:12:47.406Z,5.68
2022-07-30T23:15:14.681Z,6.03
2022-07-30T23:17:43.315Z,8.10
2022-07-30T23:20:12.430Z,5.68
2022-07-30T23:22:39.206Z,5.15
2022-07-30T23:25:07.686Z,7.60
2022-07-30T23:27:34.690Z,9.52
2022-07-30T23:30:01.478Z,10.10
2022-07-30T23:32:28.339Z,9.13
2022-07-30T23:34:55.012Z,12.10
2022-07-30T23:37:21.954Z,12.63
2022-07-30T23:39:48.675Z,9.27
2022-07-30T23:42:15.479Z,9.27
2022-07-30T23:44:42.291Z,7.15
2022-07-30T23:47:09.004Z,8.15
2022-07-30T23:49:35.707Z,7.55
2022-07-30T23:52:02.628Z,11.32
2022-07-30T23:54:29.363Z,10.52
2022-07-30T23:56:56.393Z,11.07
2022-07-30T23:59:24.222Z,6.00
